sensor_id;sensor_type;location;lat;lon;timestamp;pressure;altitude;pressure_sealevel;temperature;humidity
44839;BME280;30576;42.098;24.876;2023-02-02T00:01:28;99821.72;;;3.35;55.02
44839;BME280;30576;42.098;24.876;2023-02-02T00:03:53;99820.00;;;3.37;55.37
44839;BME280;30576;42.098;24.876;2023-02-02T00:06:20;99833.84;;;3.33;55.48
44839;BME280;30576;42.098;24.876;2023-02-02T00:08:47;99831.19;;;3.32;56.27
44839;BME280;30576;42.098;24.876;2023-02-02T00:11:13;99834.53;;;3.21;56.20
44839;BME280;30576;42.098;24.876;2023-02-02T00:13:39;99839.34;;;2.98;56.99
44839;BME280;30576;42.098;24.876;2023-02-02T00:18:48;99845.22;;;2.88;56.44
44839;BME280;30576;42.098;24.876;2023-02-02T00:21:13;99844.59;;;3.01;55.93
44839;BME280;30576;42.098;24.876;2023-02-02T00:23:38;99846.75;;;2.77;56.16
44839;BME280;30576;42.098;24.876;2023-02-02T00:26:04;99841.88;;;2.94;55.12
44839;BME280;30576;42.098;24.876;2023-02-02T00:28:29;99837.28;;;3.31;53.36
44839;BME280;30576;42.098;24.876;2023-02-02T00:30:54;99819.81;;;3.82;52.03
44839;BME280;30576;42.098;24.876;2023-02-02T00:33:19;99828.44;;;4.42;49.86
44839;BME280;30576;42.098;24.876;2023-02-02T00:35:45;99825.50;;;4.94;48.31
44839;BME280;30576;42.098;24.876;2023-02-02T00:38:10;99827.53;;;5.23;47.45
44839;BME280;30576;42.098;24.876;2023-02-02T00:40:35;99835.56;;;5.46;46.38
44839;BME280;30576;42.098;24.876;2023-02-02T00:43:00;99830.47;;;5.63;45.79
44839;BME280;30576;42.098;24.876;2023-02-02T00:45:26;99840.97;;;5.69;45.78
44839;BME280;30576;42.098;24.876;2023-02-02T00:47:51;99834.88;;;5.73;45.25
44839;BME280;30576;42.098;24.876;2023-02-02T00:50:18;99835.78;;;5.78;45.04
44839;BME280;30576;42.098;24.876;2023-02-02T00:52:43;99834.97;;;5.88;45.08
44839;BME280;30576;42.098;24.876;2023-02-02T00:55:09;99831.63;;;6.06;44.27
44839;BME280;30576;42.098;24.876;2023-02-02T00:57:35;99833.41;;;6.11;44.25
44839;BME280;30576;42.098;24.876;2023-02-02T01:00:01;99832.53;;;6.13;44.32
44839;BME280;30576;42.098;24.876;2023-02-02T01:02:26;99837.78;;;6.19;44.07
44839;BME280;30576;42.098;24.876;2023-02-02T01:04:52;99836.03;;;6.14;44.49
44839;BME280;30576;42.098;24.876;2023-02-02T01:07:17;99836.03;;;6.12;44.34
44839;BME280;30576;42.098;24.876;2023-02-02T01:09:42;99833.41;;;6.12;44.49
44839;BME280;30576;42.098;24.876;2023-02-02T01:12:07;99840.38;;;6.13;44.16
44839;BME280;30576;42.098;24.876;2023-02-02T01:14:33;99846.38;;;5.95;44.71
44839;BME280;30576;42.098;24.876;2023-02-02T01:16:58;99843.81;;;5.97;44.78
44839;BME280;30576;42.098;24.876;2023-02-02T01:19:24;99836.00;;;6.06;44.82
44839;BME280;30576;42.098;24.876;2023-02-02T01:21:49;99839.53;;;6.14;44.68
44839;BME280;30576;42.098;24.876;2023-02-02T01:24:15;99839.56;;;6.23;44.46
44839;BME280;30576;42.098;24.876;2023-02-02T01:26:40;99838.66;;;6.12;44.98
44839;BME280;30576;42.098;24.876;2023-02-02T01:29:05;99854.19;;;5.87;45.66
44839;BME280;30576;42.098;24.876;2023-02-02T01:31:31;99850.72;;;5.96;46.00
44839;BME280;30576;42.098;24.876;2023-02-02T01:33:56;99849.75;;;5.80;46.39
44839;BME280;30576;42.098;24.876;2023-02-02T01:36:22;99857.44;;;5.57;47.39
44839;BME280;30576;42.098;24.876;2023-02-02T01:38:48;99853.69;;;5.24;48.41
44839;BME280;30576;42.098;24.876;2023-02-02T01:41:15;99852.88;;;5.34;48.06
44839;BME280;30576;42.098;24.876;2023-02-02T01:46:13;99854.53;;;5.22;48.07
44839;BME280;30576;42.098;24.876;2023-02-02T01:48:40;99850.16;;;5.19;47.98
44839;BME280;30576;42.098;24.876;2023-02-02T01:51:08;99854.75;;;5.46;47.50
44839;BME280;30576;42.098;24.876;2023-02-02T01:53:34;99845.22;;;5.56;47.12
44839;BME280;30576;42.098;24.876;2023-02-02T01:56:00;99840.84;;;5.53;46.88
44839;BME280;30576;42.098;24.876;2023-02-02T01:58:28;99833.94;;;5.62;47.08
44839;BME280;30576;42.098;24.876;2023-02-02T02:00:54;99838.28;;;5.58;46.76
44839;BME280;30576;42.098;24.876;2023-02-02T02:03:20;99848.72;;;5.56;46.91
44839;BME280;30576;42.098;24.876;2023-02-02T02:08:17;99837.50;;;5.73;46.77
44839;BME280;30576;42.098;24.876;2023-02-02T02:10:43;99841.00;;;5.75;46.27
44839;BME280;30576;42.098;24.876;2023-02-02T02:13:08;99839.31;;;5.85;46.25
44839;BME280;30576;42.098;24.876;2023-02-02T02:15:37;99840.22;;;5.88;46.53
44839;BME280;30576;42.098;24.876;2023-02-02T02:18:35;99843.72;;;5.87;46.50
44839;BME280;30576;42.098;24.876;2023-02-02T02:24:52;99838.66;;;6.12;46.13
44839;BME280;30576;42.098;24.876;2023-02-02T02:35:09;99840.34;;;6.05;45.57
44839;BME280;30576;42.098;24.876;2023-02-02T02:37:59;99839.38;;;5.92;45.82
44839;BME280;30576;42.098;24.876;2023-02-02T02:40:41;99834.97;;;5.87;45.66
44839;BME280;30576;42.098;24.876;2023-02-02T02:43:30;99829.66;;;5.76;46.20
44839;BME280;30576;42.098;24.876;2023-02-02T02:45:56;99831.44;;;5.80;45.92
44839;BME280;30576;42.098;24.876;2023-02-02T02:48:21;99835.78;;;5.73;46.41
44839;BME280;30576;42.098;24.876;2023-02-02T02:50:46;99835.81;;;5.81;46.60
44839;BME280;30576;42.098;24.876;2023-02-02T02:53:21;99832.31;;;5.84;46.07
44839;BME280;30576;42.098;24.876;2023-02-02T02:55:52;99837.34;;;5.53;46.78
44839;BME280;30576;42.098;24.876;2023-02-02T02:58:20;99837.41;;;5.61;46.90
44839;BME280;30576;42.098;24.876;2023-02-02T03:03:40;99825.28;;;5.69;46.96
44839;BME280;30576;42.098;24.876;2023-02-02T03:11:02;99827.75;;;5.49;47.62
44839;BME280;30576;42.098;24.876;2023-02-02T03:13:29;99814.72;;;5.58;47.19
44839;BME280;30576;42.098;24.876;2023-02-02T03:15:55;99817.25;;;5.47;47.33
44839;BME280;30576;42.098;24.876;2023-02-02T03:18:21;99821.53;;;5.41;47.13
44839;BME280;30576;42.098;24.876;2023-02-02T03:20:47;99812.94;;;5.52;47.23
44839;BME280;30576;42.098;24.876;2023-02-02T03:23:12;99818.19;;;5.57;46.96
44839;BME280;30576;42.098;24.876;2023-02-02T03:25:38;99813.91;;;5.70;46.29
44839;BME280;30576;42.098;24.876;2023-02-02T03:28:03;99820.09;;;5.78;46.71
44839;BME280;30576;42.098;24.876;2023-02-02T03:30:29;99819.19;;;5.76;46.60
44839;BME280;30576;42.098;24.876;2023-02-02T03:32:55;99812.22;;;5.75;46.62
44839;BME280;30576;42.098;24.876;2023-02-02T03:35:21;99813.03;;;5.69;46.49
44839;BME280;30576;42.098;24.876;2023-02-02T03:37:46;99811.25;;;5.65;46.40
44839;BME280;30576;42.098;24.876;2023-02-02T03:40:12;99812.16;;;5.67;46.14
44839;BME280;30576;42.098;24.876;2023-02-02T03:42:37;99813.09;;;5.77;46.61
44839;BME280;30576;42.098;24.876;2023-02-02T03:45:03;99813.16;;;5.89;46.25
44839;BME280;30576;42.098;24.876;2023-02-02T03:47:28;99811.38;;;5.84;46.23
44839;BME280;30576;42.098;24.876;2023-02-02T03:49:54;99808.03;;;6.03;45.86
44839;BME280;30576;42.098;24.876;2023-02-02T03:52:19;99805.25;;;5.79;46.14
44839;BME280;30576;42.098;24.876;2023-02-02T03:54:44;99804.41;;;5.81;46.34
44839;BME280;30576;42.098;24.876;2023-02-02T03:57:10;99803.44;;;5.71;46.57
44839;BME280;30576;42.098;24.876;2023-02-02T03:59:35;99800.03;;;5.80;46.42
44839;BME280;30576;42.098;24.876;2023-02-02T04:02:00;99797.47;;;5.92;46.29
44839;BME280;30576;42.098;24.876;2023-02-02T04:04:25;99806.09;;;5.78;46.28
44839;BME280;30576;42.098;24.876;2023-02-02T04:06:51;99797.38;;;5.74;46.33
44839;BME280;30576;42.098;24.876;2023-02-02T04:09:16;99809.56;;;5.69;46.57
44839;BME280;30576;42.098;24.876;2023-02-02T04:11:41;99795.59;;;5.71;46.96
44839;BME280;30576;42.098;24.876;2023-02-02T04:14:08;99794.72;;;5.71;46.80
44839;BME280;30576;42.098;24.876;2023-02-02T04:16:34;99793.84;;;5.66;47.09
44839;BME280;30576;42.098;24.876;2023-02-02T04:19:01;99789.50;;;5.69;46.76
44839;BME280;30576;42.098;24.876;2023-02-02T04:21:27;99793.03;;;5.79;46.80
44839;BME280;30576;42.098;24.876;2023-02-02T04:23:52;99796.53;;;5.80;46.55
44839;BME280;30576;42.098;24.876;2023-02-02T04:26:17;99798.34;;;5.91;46.64
44839;BME280;30576;42.098;24.876;2023-02-02T04:28:43;99795.63;;;5.76;46.62
44839;BME280;30576;42.098;24.876;2023-02-02T04:31:08;99806.13;;;5.79;46.99
44839;BME280;30576;42.098;24.876;2023-02-02T04:33:33;99799.97;;;5.71;47.00
44839;BME280;30576;42.098;24.876;2023-02-02T04:35:59;99805.22;;;5.76;47.22
44839;BME280;30576;42.098;24.876;2023-02-02T04:38:25;99799.13;;;5.73;47.25
44839;BME280;30576;42.098;24.876;2023-02-02T04:40:50;99812.25;;;5.78;47.79
44839;BME280;30576;42.098;24.876;2023-02-02T04:43:15;99806.94;;;5.67;47.62
44839;BME280;30576;42.098;24.876;2023-02-02T04:45:41;99805.19;;;5.68;47.78
44839;BME280;30576;42.098;24.876;2023-02-02T04:48:06;99807.84;;;5.72;47.67
44839;BME280;30576;42.098;24.876;2023-02-02T04:50:32;99810.34;;;5.55;47.98
44839;BME280;30576;42.098;24.876;2023-02-02T04:52:57;99819.88;;;5.49;48.12
44839;BME280;30576;42.098;24.876;2023-02-02T04:55:22;99811.22;;;5.59;47.98
44839;BME280;30576;42.098;24.876;2023-02-02T04:57:48;99814.75;;;5.63;47.98
44839;BME280;30576;42.098;24.876;2023-02-02T05:00:13;99814.84;;;5.78;47.83
44839;BME280;30576;42.098;24.876;2023-02-02T05:02:39;99820.94;;;5.74;47.81
44839;BME280;30576;42.098;24.876;2023-02-02T05:05:06;99833.84;;;5.51;48.48
44839;BME280;30576;42.098;24.876;2023-02-02T05:07:32;99841.59;;;5.37;48.43
44839;BME280;30576;42.098;24.876;2023-02-02T05:09:57;99834.75;;;5.54;48.63
44839;BME280;30576;42.098;24.876;2023-02-02T05:12:23;99839.84;;;5.41;48.60
44839;BME280;30576;42.098;24.876;2023-02-02T05:14:48;99832.94;;;5.46;48.56
44839;BME280;30576;42.098;24.876;2023-02-02T05:17:13;99837.25;;;5.41;48.63
44839;BME280;30576;42.098;24.876;2023-02-02T05:19:39;99833.81;;;5.48;48.63
44839;BME280;30576;42.098;24.876;2023-02-02T05:22:04;99840.75;;;5.41;48.58
44839;BME280;30576;42.098;24.876;2023-02-02T05:24:30;99837.09;;;5.19;49.24
44839;BME280;30576;42.098;24.876;2023-02-02T05:26:55;99842.28;;;5.16;49.38
44839;BME280;30576;42.098;24.876;2023-02-02T05:29:24;99840.47;;;5.10;49.45
44839;BME280;30576;42.098;24.876;2023-02-02T05:31:49;99848.38;;;5.15;49.12
44839;BME280;30576;42.098;24.876;2023-02-02T05:34:15;99848.50;;;5.29;48.93
44839;BME280;30576;42.098;24.876;2023-02-02T05:36:40;99855.44;;;5.24;48.95
44839;BME280;30576;42.098;24.876;2023-02-02T05:39:05;99855.34;;;5.13;48.74
44839;BME280;30576;42.098;24.876;2023-02-02T05:41:30;99859.63;;;5.09;48.47
44839;BME280;30576;42.098;24.876;2023-02-02T05:43:57;99867.53;;;5.15;48.78
44839;BME280;30576;42.098;24.876;2023-02-02T05:46:23;99866.84;;;5.32;48.23
44839;BME280;30576;42.098;24.876;2023-02-02T05:48:48;99865.91;;;5.25;48.11
44839;BME280;30576;42.098;24.876;2023-02-02T05:53:48;99885.28;;;5.47;48.01
44839;BME280;30576;42.098;24.876;2023-02-02T05:56:13;99878.31;;;5.48;47.96
44839;BME280;30576;42.098;24.876;2023-02-02T05:58:39;99874.97;;;5.67;47.22
44839;BME280;30576;42.098;24.876;2023-02-02T06:01:05;99882.66;;;5.47;47.63
44839;BME280;30576;42.098;24.876;2023-02-02T06:03:30;99877.38;;;5.41;47.57
44839;BME280;30576;42.098;24.876;2023-02-02T06:05:55;99885.31;;;5.52;47.70
44839;BME280;30576;42.098;24.876;2023-02-02T06:08:21;99885.44;;;5.64;47.11
44839;BME280;30576;42.098;24.876;2023-02-02T06:10:46;99888.16;;;5.78;47.28
44839;BME280;30576;42.098;24.876;2023-02-02T06:13:11;99883.03;;;5.95;46.52
44839;BME280;30576;42.098;24.876;2023-02-02T06:15:36;99882.31;;;6.16;46.40
44839;BME280;30576;42.098;24.876;2023-02-02T06:18:02;99883.31;;;6.34;46.06
44839;BME280;30576;42.098;24.876;2023-02-02T06:20:29;99887.72;;;6.49;45.14
44839;BME280;30576;42.098;24.876;2023-02-02T06:22:54;99883.44;;;6.65;45.07
44839;BME280;30576;42.098;24.876;2023-02-02T06:25:19;99887.84;;;6.75;44.67
44839;BME280;30576;42.098;24.876;2023-02-02T06:27:45;99892.25;;;6.84;44.87
44839;BME280;30576;42.098;24.876;2023-02-02T06:30:11;99898.31;;;6.76;44.41
44839;BME280;30576;42.098;24.876;2023-02-02T06:32:36;99888.75;;;6.83;44.73
44839;BME280;30576;42.098;24.876;2023-02-02T06:35:03;99904.50;;;6.83;44.93
44839;BME280;30576;42.098;24.876;2023-02-02T06:37:28;99902.72;;;6.77;44.82
44839;BME280;30576;42.098;24.876;2023-02-02T06:39:54;99903.59;;;6.84;44.44
44839;BME280;30576;42.098;24.876;2023-02-02T06:42:19;99905.34;;;6.84;44.85
44839;BME280;30576;42.098;24.876;2023-02-02T06:44:44;99909.78;;;6.98;44.85
44839;BME280;30576;42.098;24.876;2023-02-02T06:47:09;99904.56;;;7.09;43.73
44839;BME280;30576;42.098;24.876;2023-02-02T06:49:35;99913.28;;;7.07;44.11
44839;BME280;30576;42.098;24.876;2023-02-02T06:52:00;99903.69;;;7.16;44.02
44839;BME280;30576;42.098;24.876;2023-02-02T06:54:26;99910.72;;;7.24;44.31
44839;BME280;30576;42.098;24.876;2023-02-02T06:56:51;99907.25;;;7.48;43.61
44839;BME280;30576;42.098;24.876;2023-02-02T06:59:16;99901.13;;;7.57;42.85
44839;BME280;30576;42.098;24.876;2023-02-02T07:01:42;99895.00;;;7.68;42.39
44839;BME280;30576;42.098;24.876;2023-02-02T07:04:07;99898.47;;;8.03;41.89
44839;BME280;30576;42.098;24.876;2023-02-02T07:06:32;99894.94;;;8.25;41.52
44839;BME280;30576;42.098;24.876;2023-02-02T07:08:59;99895.78;;;8.52;40.85
44839;BME280;30576;42.098;24.876;2023-02-02T07:11:24;99901.03;;;8.46;40.39
44839;BME280;30576;42.098;24.876;2023-02-02T07:13:49;99906.28;;;8.49;39.96
44839;BME280;30576;42.098;24.876;2023-02-02T07:16:15;99910.66;;;8.59;40.46
44839;BME280;30576;42.098;24.876;2023-02-02T07:18:41;99909.81;;;8.50;41.00
44839;BME280;30576;42.098;24.876;2023-02-02T07:21:07;99903.66;;;8.49;40.55
44839;BME280;30576;42.098;24.876;2023-02-02T07:23:33;99904.56;;;8.40;41.16
44839;BME280;30576;42.098;24.876;2023-02-02T07:26:08;99908.03;;;8.56;41.90
44839;BME280;30576;42.098;24.876;2023-02-02T07:28:33;99901.91;;;8.54;41.62
44839;BME280;30576;42.098;24.876;2023-02-02T07:30:59;99908.94;;;8.45;41.75
44839;BME280;30576;42.098;24.876;2023-02-02T07:33:25;99909.81;;;8.56;41.45
44839;BME280;30576;42.098;24.876;2023-02-02T07:35:50;99912.41;;;8.62;41.55
44839;BME280;30576;42.098;24.876;2023-02-02T07:38:15;99908.81;;;8.82;40.63
44839;BME280;30576;42.098;24.876;2023-02-02T07:40:41;99909.66;;;8.90;39.85
44839;BME280;30576;42.098;24.876;2023-02-02T07:43:07;99917.50;;;9.02;40.25
44839;BME280;30576;42.098;24.876;2023-02-02T07:45:33;99906.84;;;9.25;39.87
44839;BME280;30576;42.098;24.876;2023-02-02T07:47:58;99911.97;;;9.47;40.28
44839;BME280;30576;42.098;24.876;2023-02-02T07:50:24;99903.19;;;9.45;38.47
44839;BME280;30576;42.098;24.876;2023-02-02T07:52:50;99915.50;;;9.40;39.63
44839;BME280;30576;42.098;24.876;2023-02-02T07:55:15;99908.34;;;9.59;39.15
44839;BME280;30576;42.098;24.876;2023-02-02T07:57:40;99907.31;;;9.78;38.92
44839;BME280;30576;42.098;24.876;2023-02-02T08:00:06;99904.53;;;9.97;38.90
44839;BME280;30576;42.098;24.876;2023-02-02T08:02:31;99907.78;;;10.24;38.83
44839;BME280;30576;42.098;24.876;2023-02-02T08:04:56;99912.44;;;9.95;39.23
44839;BME280;30576;42.098;24.876;2023-02-02T08:07:22;99906.41;;;9.82;38.98
44839;BME280;30576;42.098;24.876;2023-02-02T08:09:49;99912.81;;;9.49;40.16
44839;BME280;30576;42.098;24.876;2023-02-02T08:12:14;99910.44;;;9.10;40.03
44839;BME280;30576;42.098;24.876;2023-02-02T08:14:40;99900.78;;;9.05;39.72
44839;BME280;30576;42.098;24.876;2023-02-02T08:17:05;99901.66;;;9.13;39.90
44839;BME280;30576;42.098;24.876;2023-02-02T08:19:30;99907.78;;;9.12;40.31
44839;BME280;30576;42.098;24.876;2023-02-02T08:21:55;99904.38;;;8.93;40.67
44839;BME280;30576;42.098;24.876;2023-02-02T08:24:21;99908.66;;;9.12;39.89
44839;BME280;30576;42.098;24.876;2023-02-02T08:26:46;99896.19;;;9.42;40.26
44839;BME280;30576;42.098;24.876;2023-02-02T08:29:11;99896.00;;;9.70;39.54
44839;BME280;30576;42.098;24.876;2023-02-02T08:31:41;99898.66;;;9.65;39.63
44839;BME280;30576;42.098;24.876;2023-02-02T08:34:06;99897.03;;;9.47;39.07
44839;BME280;30576;42.098;24.876;2023-02-02T08:36:32;99896.25;;;9.35;39.15
44839;BME280;30576;42.098;24.876;2023-02-02T08:39:03;99891.09;;;9.16;38.89
44839;BME280;30576;42.098;24.876;2023-02-02T08:41:29;99892.69;;;9.37;39.02
44839;BME280;30576;42.098;24.876;2023-02-02T08:43:55;99889.03;;;9.61;38.18
44839;BME280;30576;42.098;24.876;2023-02-02T08:46:20;99883.72;;;9.64;37.79
44839;BME280;30576;42.098;24.876;2023-02-02T08:48:46;99894.91;;;9.90;37.96
44839;BME280;30576;42.098;24.876;2023-02-02T08:51:12;99884.31;;;9.97;36.81
44839;BME280;30576;42.098;24.876;2023-02-02T08:53:39;99892.88;;;10.23;38.18
44839;BME280;30576;42.098;24.876;2023-02-02T08:56:06;99887.50;;;10.32;37.17
44839;BME280;30576;42.098;24.876;2023-02-02T08:58:32;99890.16;;;10.30;36.10
44839;BME280;30576;42.098;24.876;2023-02-02T09:03:56;99888.34;;;10.35;36.39
44839;BME280;30576;42.098;24.876;2023-02-02T09:06:23;99883.19;;;10.21;36.08
44839;BME280;30576;42.098;24.876;2023-02-02T09:08:50;99890.91;;;10.43;35.70
44839;BME280;30576;42.098;24.876;2023-02-02T09:11:16;99870.69;;;10.44;36.04
44839;BME280;30576;42.098;24.876;2023-02-02T09:13:42;99872.31;;;10.54;36.25
44839;BME280;30576;42.098;24.876;2023-02-02T09:16:10;99878.63;;;10.39;36.11
44839;BME280;30576;42.098;24.876;2023-02-02T09:18:35;99876.66;;;10.56;35.93
44839;BME280;30576;42.098;24.876;2023-02-02T09:21:01;99870.97;;;10.89;36.40
44839;BME280;30576;42.098;24.876;2023-02-02T09:23:30;99871.00;;;10.87;35.44
44839;BME280;30576;42.098;24.876;2023-02-02T09:25:56;99862.66;;;11.18;35.94
44839;BME280;30576;42.098;24.876;2023-02-02T09:28:21;99864.88;;;10.87;35.36
44839;BME280;30576;42.098;24.876;2023-02-02T09:30:47;99857.81;;;10.86;35.26
44839;BME280;30576;42.098;24.876;2023-02-02T09:33:12;99859.41;;;10.99;35.26
44839;BME280;30576;42.098;24.876;2023-02-02T09:35:37;99857.03;;;11.40;35.33
44839;BME280;30576;42.098;24.876;2023-02-02T09:38:03;99846.94;;;11.09;35.55
44839;BME280;30576;42.098;24.876;2023-02-02T09:40:29;99840.75;;;11.11;35.02
44839;BME280;30576;42.098;24.876;2023-02-02T09:42:58;99833.56;;;11.21;35.24
44839;BME280;30576;42.098;24.876;2023-02-02T09:50:52;99819.28;;;11.86;33.60
44839;BME280;30576;42.098;24.876;2023-02-02T09:53:24;99822.19;;;11.71;34.07
44839;BME280;30576;42.098;24.876;2023-02-02T09:55:52;99823.25;;;11.62;34.08
44839;BME280;30576;42.098;24.876;2023-02-02T10:08:51;99788.88;;;11.09;34.17
44839;BME280;30576;42.098;24.876;2023-02-02T10:14:16;99780.03;;;11.11;34.57
44839;BME280;30576;42.098;24.876;2023-02-02T10:16:44;99768.41;;;11.23;34.27
44839;BME280;30576;42.098;24.876;2023-02-02T10:19:11;99771.72;;;11.36;34.50
44839;BME280;30576;42.098;24.876;2023-02-02T10:21:39;99770.63;;;11.50;34.06
44839;BME280;30576;42.098;24.876;2023-02-02T10:24:15;99755.13;;;11.78;34.39
44839;BME280;30576;42.098;24.876;2023-02-02T10:26:46;99757.84;;;11.73;33.62
44839;BME280;30576;42.098;24.876;2023-02-02T10:39:56;99740.84;;;11.88;33.78
44839;BME280;30576;42.098;24.876;2023-02-02T10:45:00;99734.19;;;12.12;34.47
44839;BME280;30576;42.098;24.876;2023-02-02T10:47:29;99726.00;;;12.25;34.28
44839;BME280;30576;42.098;24.876;2023-02-02T10:50:01;99727.25;;;12.08;34.10
44839;BME280;30576;42.098;24.876;2023-02-02T10:52:31;99718.38;;;12.11;34.31
44839;BME280;30576;42.098;24.876;2023-02-02T10:57:33;99705.59;;;12.31;33.69
44839;BME280;30576;42.098;24.876;2023-02-02T11:00:05;99692.84;;;12.49;33.42
44839;BME280;30576;42.098;24.876;2023-02-02T11:02:34;99693.22;;;12.33;33.51
44839;BME280;30576;42.098;24.876;2023-02-02T11:05:00;99681.16;;;12.59;32.54
44839;BME280;30576;42.098;24.876;2023-02-02T11:07:54;99684.09;;;12.84;32.35
44839;BME280;30576;42.098;24.876;2023-02-02T11:10:19;99682.53;;;12.76;32.07
44839;BME280;30576;42.098;24.876;2023-02-02T11:12:45;99682.78;;;12.65;31.70
44839;BME280;30576;42.098;24.876;2023-02-02T11:15:24;99667.97;;;12.58;32.99
44839;BME280;30576;42.098;24.876;2023-02-02T11:17:49;99668.50;;;12.72;33.56
44839;BME280;30576;42.098;24.876;2023-02-02T11:20:34;99660.56;;;12.72;31.77
44839;BME280;30576;42.098;24.876;2023-02-02T11:23:02;99652.63;;;12.72;32.12
44839;BME280;30576;42.098;24.876;2023-02-02T11:25:37;99653.19;;;12.85;31.54
44839;BME280;30576;42.098;24.876;2023-02-02T11:28:17;99644.72;;;12.70;32.37
44839;BME280;30576;42.098;24.876;2023-02-02T11:30:46;99639.28;;;12.77;32.85
44839;BME280;30576;42.098;24.876;2023-02-02T11:35:53;99638.78;;;12.97;31.90
44839;BME280;30576;42.098;24.876;2023-02-02T11:38:19;99633.25;;;13.06;32.28
44839;BME280;30576;42.098;24.876;2023-02-02T11:40:51;99620.75;;;13.11;31.96
44839;BME280;30576;42.098;24.876;2023-02-02T11:43:18;99623.25;;;13.16;32.11
44839;BME280;30576;42.098;24.876;2023-02-02T11:45:45;99610.75;;;13.55;31.74
44839;BME280;30576;42.098;24.876;2023-02-02T11:48:18;99609.50;;;13.36;30.98
44839;BME280;30576;42.098;24.876;2023-02-02T11:50:51;99604.00;;;13.11;30.75
44839;BME280;30576;42.098;24.876;2023-02-02T11:55:46;99597.59;;;13.19;32.02
44839;BME280;30576;42.098;24.876;2023-02-02T11:58:24;99590.75;;;13.43;31.55
44839;BME280;30576;42.098;24.876;2023-02-02T12:00:59;99571.41;;;13.71;31.11
44839;BME280;30576;42.098;24.876;2023-02-02T12:03:36;99575.44;;;13.85;29.55
44839;BME280;30576;42.098;24.876;2023-02-02T12:08:45;99576.66;;;14.03;28.23
44839;BME280;30576;42.098;24.876;2023-02-02T12:11:15;99580.81;;;13.82;29.07
44839;BME280;30576;42.098;24.876;2023-02-02T12:14:07;99567.66;;;14.07;29.90
44839;BME280;30576;42.098;24.876;2023-02-02T12:16:38;99559.50;;;14.13;28.26
44839;BME280;30576;42.098;24.876;2023-02-02T12:19:15;99563.41;;;13.73;28.33
44839;BME280;30576;42.098;24.876;2023-02-02T12:24:30;99570.13;;;13.55;28.78
44839;BME280;30576;42.098;24.876;2023-02-02T12:32:38;99559.69;;;13.78;29.53
44839;BME280;30576;42.098;24.876;2023-02-02T12:37:57;99550.88;;;14.35;27.55
44839;BME280;30576;42.098;24.876;2023-02-02T12:40:38;99551.06;;;14.28;27.12
44839;BME280;30576;42.098;24.876;2023-02-02T12:53:24;99561.06;;;13.31;29.25
44839;BME280;30576;42.098;24.876;2023-02-02T13:09:07;99544.88;;;13.10;27.14
44839;BME280;30576;42.098;24.876;2023-02-02T13:14:00;99543.38;;;13.00;27.31
44839;BME280;30576;42.098;24.876;2023-02-02T13:16:29;99539.34;;;12.85;27.76
44839;BME280;30576;42.098;24.876;2023-02-02T13:18:58;99545.22;;;12.98;28.03
44839;BME280;30576;42.098;24.876;2023-02-02T13:21:25;99537.59;;;12.85;27.90
44839;BME280;30576;42.098;24.876;2023-02-02T13:23:54;99535.06;;;12.81;27.95
44839;BME280;30576;42.098;24.876;2023-02-02T13:26:25;99536.94;;;12.76;28.15
44839;BME280;30576;42.098;24.876;2023-02-02T13:34:19;99538.19;;;12.95;28.32
44839;BME280;30576;42.098;24.876;2023-02-02T13:39:46;99532.88;;;13.28;28.37
44839;BME280;30576;42.098;24.876;2023-02-02T13:42:24;99528.25;;;13.03;27.55
44839;BME280;30576;42.098;24.876;2023-02-02T13:44:54;99536.44;;;13.27;28.27
44839;BME280;30576;42.098;24.876;2023-02-02T13:47:34;99538.78;;;13.39;27.93
44839;BME280;30576;42.098;24.876;2023-02-02T13:50:03;99540.84;;;13.26;27.75
44839;BME280;30576;42.098;24.876;2023-02-02T14:05:07;99519.91;;;13.50;27.86
44839;BME280;30576;42.098;24.876;2023-02-02T14:07:44;99516.66;;;13.40;29.21
44839;BME280;30576;42.098;24.876;2023-02-02T14:10:30;99523.22;;;13.27;29.11
44839;BME280;30576;42.098;24.876;2023-02-02T14:13:04;99524.63;;;13.07;28.85
44839;BME280;30576;42.098;24.876;2023-02-02T14:15:37;99532.69;;;13.03;28.86
44839;BME280;30576;42.098;24.876;2023-02-02T14:18:03;99548.34;;;12.79;28.39
44839;BME280;30576;42.098;24.876;2023-02-02T14:26:03;99592.72;;;11.05;38.74
44839;BME280;30576;42.098;24.876;2023-02-02T14:28:39;99570.59;;;11.13;39.02
44839;BME280;30576;42.098;24.876;2023-02-02T14:39:30;99585.22;;;11.29;40.27
44839;BME280;30576;42.098;24.876;2023-02-02T14:42:07;99586.75;;;11.41;40.03
44839;BME280;30576;42.098;24.876;2023-02-02T14:45:05;99581.53;;;11.80;39.30
44839;BME280;30576;42.098;24.876;2023-02-02T14:47:48;99583.50;;;11.70;39.16
44839;BME280;30576;42.098;24.876;2023-02-02T14:50:16;99586.31;;;11.62;40.13
44839;BME280;30576;42.098;24.876;2023-02-02T14:52:42;99592.13;;;11.36;41.25
44839;BME280;30576;42.098;24.876;2023-02-02T14:55:17;99600.91;;;11.37;40.80
44839;BME280;30576;42.098;24.876;2023-02-02T14:57:43;99602.03;;;11.25;41.38
44839;BME280;30576;42.098;24.876;2023-02-02T15:00:21;99596.78;;;11.23;41.38
44839;BME280;30576;42.098;24.876;2023-02-02T15:02:47;99593.16;;;11.27;40.88
44839;BME280;30576;42.098;24.876;2023-02-02T15:07:52;99591.63;;;11.17;40.22
44839;BME280;30576;42.098;24.876;2023-02-02T15:11:04;99586.09;;;11.29;39.81
44839;BME280;30576;42.098;24.876;2023-02-02T15:13:05;99579.59;;;11.46;39.72
44839;BME280;30576;42.098;24.876;2023-02-02T15:15:34;99568.84;;;11.55;40.05
44839;BME280;30576;42.098;24.876;2023-02-02T15:20:57;99584.53;;;11.19;39.35
44839;BME280;30576;42.098;24.876;2023-02-02T15:23:31;99583.25;;;10.93;39.13
44839;BME280;30576;42.098;24.876;2023-02-02T15:26:02;99585.53;;;11.12;39.25
44839;BME280;30576;42.098;24.876;2023-02-02T15:31:17;99583.97;;;11.03;39.52
44839;BME280;30576;42.098;24.876;2023-02-02T15:33:47;99594.72;;;11.38;39.51
44839;BME280;30576;42.098;24.876;2023-02-02T15:38:39;99610.66;;;11.33;40.93